Time;durP1;ratioP1;P1;durP2;ratioP2;P2;SDS_P1;SDS_P2;PMS_P1;PMS_P2;Temp;Humidity;BMP_temperature;BMP_pressure;BME280_temperature;BME280_humidity;BME280_pressure;Samples;Min_cycle;Max_cycle;Signal;HPM_P1;HPM_P2
2023/05/25 00:00:07;;;;;;;;;;;;;;;;;;5111783;27;19916;-62
2023/05/25 00:02:34;;;;;;;;;;;;;;;;;;5110540;28;19912;-62
2023/05/25 00:05:01;;;;;;;;;;;;;;;;;;5111710;28;20303;-63
2023/05/25 00:07:27;;;;;;;;;;;;;;;;;;5111431;28;20379;-65
2023/05/25 00:09:53;;;;;;;;;;;;;;;;;;5111636;28;19953;-62
2023/05/25 00:12:47;;;;;;;;;;;;;;;;;;5112037;27;19912;-63
2023/05/25 00:15:12;;;;;;;;;;;;;;;;;;5111386;28;20010;-63
2023/05/25 00:19:28;;;;;;;;;;;;;;;;;;5112639;27;19922;-62
2023/05/25 00:21:53;;;;;;;;;;;;;;;;;;5111357;28;19994;-62
2023/05/25 00:28:41;;;;;;;;;;;;;;;;;;5111720;27;19922;-62
2023/05/25 00:32:42;;;;;;;;;;;;;;;;;;5111904;27;19916;-62
2023/05/25 00:35:08;;;;;;;;;;;;;;;;;;5111381;28;20006;-62
2023/05/25 00:37:34;;;;;;;;;;;;;;;;;;5111680;28;19954;-62
2023/05/25 00:40:00;;;;;;;;;;;;;;;;;;5111664;28;19969;-63
2023/05/25 00:42:56;;;;;;;;;;;;;;;;;;5111467;27;19912;-63
2023/05/25 00:45:22;;;;;;;;;;;;;;;;;;5111725;28;19912;-65
2023/05/25 00:50:01;;;;;;;;;;;;;;;;;;5111634;27;19912;-62
2023/05/25 00:52:27;;;;;;;;;;;;;;;;;;5111716;28;20007;-62
2023/05/25 01:00:31;;;;;;;;;;;;;;;;;;5112098;27;19916;-63
2023/05/25 01:04:24;;;;;;;;;;;;;;;;;;5111355;27;19916;-63
2023/05/25 01:06:52;;;;;;;;;;;;;;;;;;5111767;28;19912;-62
2023/05/25 01:10:38;;;;;;;;;;;;;;;;;;5071032;28;19923;-65
2023/05/25 01:13:04;;;;;;;;;;;;;;;;;;5071171;28;20085;-63
2023/05/25 01:16:17;;;;;;;;;;;;;;;;;;5111788;27;19923;-62
2023/05/25 01:18:46;;;;;;;;;;;;;;;;;;5111341;28;19994;-63
2023/05/25 01:21:12;;;;;;;;;;;;;;;;;;5111691;28;20241;-63
2023/05/25 01:23:38;;;;;;;;;;;;;;;;;;5111523;28;19926;-63
2023/05/25 01:26:50;;;;;;;;;;;;;;;;;;5071772;28;19916;-62
2023/05/25 01:29:16;;;;;;;;;;;;;;;;;;5071199;28;19995;-65
2023/05/25 01:33:36;;;;;;;;;;;;;;;;;;5091664;27;19922;-64
2023/05/25 01:36:53;;;;;;;;;;;;;;;;;;5091649;27;19916;-64
2023/05/25 01:39:19;;;;;;;;;;;;;;;;;;5091060;28;20007;-66
2023/05/25 01:41:45;;;;;;;;;;;;;;;;;;5091356;28;19908;-65
2023/05/25 01:48:13;;;;;;;;;;;;;;;;;;5071442;28;19923;-62
2023/05/25 01:52:12;;;;;;;;;;;;;;;;;;5111522;27;19916;-64
2023/05/25 01:58:27;;;;;;;;;;;;;;;;;;5091459;27;19922;-63
2023/05/25 02:03:34;;;;;;;;;;;;;;;;;;5071615;28;19919;-62
2023/05/25 02:06:00;;;;;;;;;;;;;;;;;;5069543;28;20003;-62
2023/05/25 02:08:26;;;;;;;;;;;;;;;;;;5071671;28;19908;-62
2023/05/25 02:12:32;;;;;;;;;;;;;;;;;;5091797;27;19916;-62
2023/05/25 02:18:45;;;;;;;;;;;;;;;;;;5153150;27;20018;-62
2023/05/25 02:25:41;;;;;;;;;;;;;;;;;;5091982;27;19974;-65
2023/05/25 02:28:07;;;;;;;;;;;;;;;;;;5091064;28;19981;-62
2023/05/25 02:30:33;;;;;;;;;;;;;;;;;;5091605;28;20368;-62
2023/05/25 02:34:27;;;;;;;;;;;;;;;;;;5091054;27;19913;-63
2023/05/25 02:36:53;;;;;;;;;;;;;;;;;;5091346;28;19919;-62
2023/05/25 02:39:19;;;;;;;;;;;;;;;;;;5091504;28;19908;-62
2023/05/25 02:43:07;;;;;;;;;;;;;;;;;;5111456;27;19922;-63
2023/05/25 02:45:33;;;;;;;;;;;;;;;;;;5110537;28;20375;-62
2023/05/25 02:47:59;;;;;;;;;;;;;;;;;;5111731;28;19908;-65
2023/05/25 02:50:25;;;;;;;;;;;;;;;;;;5110336;28;19998;-62
2023/05/25 02:53:36;;;;;;;;;;;;;;;;;;5091931;27;19923;-62
2023/05/25 02:56:52;;;;;;;;;;;;;;;;;;5111570;27;19922;-63
2023/05/25 02:59:18;;;;;;;;;;;;;;;;;;5111779;28;20006;-62
2023/05/25 03:03:58;;;;;;;;;;;;;;;;;;5111551;27;19912;-62
2023/05/25 03:10:54;;;;;;;;;;;;;;;;;;5111590;27;19922;-62
2023/05/25 03:13:44;;;;;;;;;;;;;;;;;;5112281;27;20364;-62
2023/05/25 03:16:11;;;;;;;;;;;;;;;;;;5110123;28;20007;-62
2023/05/25 03:18:37;;;;;;;;;;;;;;;;;;5111734;28;20279;-62
2023/05/25 03:25:12;;;;;;;;;;;;;;;;;;5111436;27;20286;-62
2023/05/25 03:27:38;;;;;;;;;;;;;;;;;;5111764;28;19962;-62
2023/05/25 03:30:04;;;;;;;;;;;;;;;;;;5110453;28;20379;-62
2023/05/25 03:32:31;;;;;;;;;;;;;;;;;;5111306;28;20367;-62
2023/05/25 03:34:57;;;;;;;;;;;;;;;;;;5111621;28;19947;-62
2023/05/25 03:37:23;;;;;;;;;;;;;;;;;;5109904;28;20414;-62
2023/05/25 03:39:48;;;;;;;;;;;;;;;;;;5110262;28;20402;-62
2023/05/25 03:42:14;;;;;;;;;;;;;;;;;;5111692;28;19954;-62
2023/05/25 03:47:48;;;;;;;;;;;;;;;;;;5112547;27;20283;-64
2023/05/25 03:50:14;;;;;;;;;;;;;;;;;;5110786;28;19912;-64
2023/05/25 03:52:40;;;;;;;;;;;;;;;;;;5109972;28;19908;-64
2023/05/25 03:56:57;;;;;;;;;;;;;;;;;;5112444;27;19927;-63
2023/05/25 03:59:24;;;;;;;;;;;;;;;;;;5111397;28;20008;-65
2023/05/25 04:01:50;;;;;;;;;;;;;;;;;;5110362;28;19973;-62
2023/05/25 04:04:16;;;;;;;;;;;;;;;;;;5111616;28;20367;-62
2023/05/25 04:06:44;;;;;;;;;;;;;;;;;;5111236;28;19943;-64
2023/05/25 04:10:15;;;;;;;;;;;;;;;;;;5112019;27;19916;-62
2023/05/25 04:13:45;;;;;;;;;;;;;;;;;;5111406;27;19923;-63
2023/05/25 04:16:12;;;;;;;;;;;;;;;;;;5111970;28;19918;-63
2023/05/25 04:23:22;;;;;;;;;;;;;;;;;;5091784;27;19922;-69
2023/05/25 04:29:13;;;;;;;;;;;;;;;;;;5112115;27;20295;-67
2023/05/25 04:31:39;;;;;;;;;;;;;;;;;;5111894;28;19919;-68
2023/05/25 04:34:35;;;;;;;;;;;;;;;;;;5070511;28;19927;-68
2023/05/25 04:37:04;;;;;;;;;;;;;;;;;;5071493;28;19913;-68
2023/05/25 04:39:30;;;;;;;;;;;;;;;;;;5066616;28;19909;-67
2023/05/25 04:41:57;;;;;;;;;;;;;;;;;;5055792;28;20007;-67
2023/05/25 04:44:24;;;;;;;;;;;;;;;;;;5050826;28;19936;-67
2023/05/25 04:47:00;;;;;;;;;;;;;;;;;;5087644;28;19916;-67
2023/05/25 04:51:19;;;;;;;;;;;;;;;;;;5109639;27;20291;-67
2023/05/25 04:53:45;;;;;;;;;;;;;;;;;;5109069;28;20274;-68
2023/05/25 04:56:49;;;;;;;;;;;;;;;;;;5090715;27;19916;-67
2023/05/25 05:01:43;;;;;;;;;;;;;;;;;;5171927;27;19922;-67
2023/05/25 05:06:33;;;;;;;;;;;;;;;;;;5091290;27;19917;-67
2023/05/25 05:08:59;;;;;;;;;;;;;;;;;;5090235;28;19912;-67
2023/05/25 05:13:29;;;;;;;;;;;;;;;;;;5090087;27;20303;-67
2023/05/25 05:15:55;;;;;;;;;;;;;;;;;;5090562;28;19913;-66
2023/05/25 05:18:21;;;;;;;;;;;;;;;;;;5090257;28;20261;-66
2023/05/25 05:22:48;;;;;;;;;;;;;;;;;;5090695;28;19923;-66
2023/05/25 05:25:14;;;;;;;;;;;;;;;;;;5090835;28;19912;-67
2023/05/25 05:28:02;;;;;;;;;;;;;;;;;;5111596;27;20310;-66
2023/05/25 05:31:18;;;;;;;;;;;;;;;;;;5123746;27;20773;-66
2023/05/25 05:41:00;;;;;;;;;;;;;;;;;;5096615;27;2111315;-66
2023/05/25 05:47:11;;;;;;;;;;;;;;;;;;5086572;27;20646;-66
2023/05/25 05:49:38;;;;;;;;;;;;;;;;;;5085457;28;19912;-66
2023/05/25 05:52:04;;;;;;;;;;;;;;;;;;5086372;28;19969;-66
2023/05/25 05:54:30;;;;;;;;;;;;;;;;;;5084331;28;19917;-68
2023/05/25 05:57:44;;;;;;;;;;;;;;;;;;5083624;27;20602;-68
2023/05/25 06:01:05;;;;;;;;;;;;;;;;;;5165653;27;19923;-67
2023/05/25 06:03:32;;;;;;;;;;;;;;;;;;5168282;27;19915;-66
2023/05/25 06:05:58;;;;;;;;;;;;;;;;;;5153217;27;19907;-64
2023/05/25 06:10:16;;;;;;;;;;;;;;;;;;5098688;27;2098124;-66
2023/05/25 06:12:42;;;;;;;;;;;;;;;;;;5171837;27;20006;-65
2023/05/25 06:19:55;;;;;;;;;;;;;;;;;;5089948;27;19913;-67
2023/05/25 06:31:45;;;;;;;;;;;;;;;;;;5088639;27;19912;-66
2023/05/25 06:34:11;;;;;;;;;;;;;;;;;;5089786;28;20376;-66
2023/05/25 06:36:36;;;;;;;;;;;;;;;;;;5088376;28;19915;-67
2023/05/25 06:39:02;;;;;;;;;;;;;;;;;;5085664;28;20338;-67
2023/05/25 06:41:29;;;;;;;;;;;;;;;;;;5087766;28;20272;-67
2023/05/25 06:45:17;;;;;;;;;;;;;;;;;;5042307;27;2123934;-66
2023/05/25 06:49:44;;;;;;;;;;;;;;;;;;5088804;28;19920;-66
2023/05/25 06:52:10;;;;;;;;;;;;;;;;;;5090015;28;19918;-67
2023/05/25 06:54:36;;;;;;;;;;;;;;;;;;5088839;28;19912;-66
2023/05/25 07:00:59;;;;;;;;;;;;;;;;;;5089076;27;19923;-67
2023/05/25 07:03:26;;;;;;;;;;;;;;;;;;5088734;28;19920;-67
2023/05/25 07:06:06;;;;;;;;;;;;;;;;;;5084236;27;19923;-67
2023/05/25 07:08:32;;;;;;;;;;;;;;;;;;5089798;28;19917;-67
2023/05/25 07:11:39;;;;;;;;;;;;;;;;;;5089294;27;19927;-67
2023/05/25 07:14:04;;;;;;;;;;;;;;;;;;5088558;28;19912;-66
2023/05/25 07:16:30;;;;;;;;;;;;;;;;;;5088133;28;19912;-65
2023/05/25 07:18:56;;;;;;;;;;;;;;;;;;5088451;28;19915;-65
2023/05/25 07:24:43;;;;;;;;;;;;;;;;;;5085938;27;19927;-65
2023/05/25 07:27:09;;;;;;;;;;;;;;;;;;5089991;28;19912;-65
2023/05/25 07:32:08;;;;;;;;;;;;;;;;;;5089618;27;19912;-66
2023/05/25 07:35:53;;;;;;;;;;;;;;;;;;5090668;27;19917;-65
2023/05/25 07:38:19;;;;;;;;;;;;;;;;;;5088998;28;20443;-65
2023/05/25 07:40:46;;;;;;;;;;;;;;;;;;5089585;28;20286;-64
2023/05/25 07:43:12;;;;;;;;;;;;;;;;;;5089401;28;19995;-64
2023/05/25 07:45:38;;;;;;;;;;;;;;;;;;5088175;28;20720;-64
2023/05/25 07:48:05;;;;;;;;;;;;;;;;;;5083865;28;20041;-64
2023/05/25 07:50:42;;;;;;;;;;;;;;;;;;5089752;28;20324;-66
2023/05/25 07:53:08;;;;;;;;;;;;;;;;;;5089374;28;19922;-66
2023/05/25 07:55:34;;;;;;;;;;;;;;;;;;5089300;28;19916;-66
2023/05/25 08:00:55;;;;;;;;;;;;;;;;;;5089931;27;19921;-67
2023/05/25 08:03:21;;;;;;;;;;;;;;;;;;5083714;28;20391;-66
2023/05/25 08:05:47;;;;;;;;;;;;;;;;;;5081331;28;19919;-66
2023/05/25 08:08:13;;;;;;;;;;;;;;;;;;5087263;28;20388;-66
2023/05/25 08:11:51;;;;;;;;;;;;;;;;;;5086945;27;19926;-66
2023/05/25 08:14:17;;;;;;;;;;;;;;;;;;5077937;28;19912;-66
2023/05/25 08:16:43;;;;;;;;;;;;;;;;;;5083837;28;20368;-66
2023/05/25 08:23:25;;;;;;;;;;;;;;;;;;5126255;27;19922;-66
2023/05/25 08:25:51;;;;;;;;;;;;;;;;;;5106053;28;19920;-67
2023/05/25 08:28:17;;;;;;;;;;;;;;;;;;5090275;28;19908;-66
2023/05/25 08:30:43;;;;;;;;;;;;;;;;;;5108016;28;19919;-66
2023/05/25 08:33:09;;;;;;;;;;;;;;;;;;5106219;28;19934;-66
2023/05/25 08:35:39;;;;;;;;;;;;;;;;;;5104945;28;19915;-66
2023/05/25 08:38:05;;;;;;;;;;;;;;;;;;5107090;28;19912;-66
2023/05/25 08:40:31;;;;;;;;;;;;;;;;;;5107105;28;20432;-66
2023/05/25 08:42:57;;;;;;;;;;;;;;;;;;5089200;28;19920;-66
2023/05/25 08:45:23;;;;;;;;;;;;;;;;;;5106242;28;19924;-66
2023/05/25 08:47:49;;;;;;;;;;;;;;;;;;5087503;28;19916;-66
2023/05/25 08:50:18;;;;;;;;;;;;;;;;;;5086090;28;19915;-66
2023/05/25 08:52:45;;;;;;;;;;;;;;;;;;5088073;28;20003;-66
2023/05/25 08:57:01;;;;;;;;;;;;;;;;;;5086520;27;19917;-67
2023/05/25 08:59:27;;;;;;;;;;;;;;;;;;5086466;28;19916;-66
2023/05/25 09:01:53;;;;;;;;;;;;;;;;;;5089029;28;19912;-66
2023/05/25 09:04:19;;;;;;;;;;;;;;;;;;5087520;28;19917;-67
2023/05/25 09:08:07;;;;;;;;;;;;;;;;;;5140853;27;19919;-66
2023/05/25 09:10:33;;;;;;;;;;;;;;;;;;5104356;28;19912;-66
2023/05/25 09:13:00;;;;;;;;;;;;;;;;;;5107223;28;19908;-65
2023/05/25 09:15:26;;;;;;;;;;;;;;;;;;5106075;28;19920;-65
2023/05/25 09:17:52;;;;;;;;;;;;;;;;;;5125878;28;19912;-66
2023/05/25 09:20:18;;;;;;;;;;;;;;;;;;5110500;28;19999;-65
2023/05/25 09:22:44;;;;;;;;;;;;;;;;;;5127473;28;19912;-68
2023/05/25 09:25:10;;;;;;;;;;;;;;;;;;5108231;28;19908;-68
2023/05/25 09:27:36;;;;;;;;;;;;;;;;;;5126263;28;20018;-68
2023/05/25 09:30:02;;;;;;;;;;;;;;;;;;5126545;28;19951;-67
2023/05/25 09:32:28;;;;;;;;;;;;;;;;;;5108615;28;19939;-67
2023/05/25 09:35:25;;;;;;;;;;;;;;;;;;5149136;27;19960;-67
2023/05/25 09:39:37;;;;;;;;;;;;;;;;;;5087171;28;19923;-67
2023/05/25 09:42:36;;;;;;;;;;;;;;;;;;5141028;27;19923;-67
2023/05/25 09:45:02;;;;;;;;;;;;;;;;;;5129495;28;20295;-67
2023/05/25 09:47:28;;;;;;;;;;;;;;;;;;5130265;28;19908;-67
2023/05/25 09:49:54;;;;;;;;;;;;;;;;;;5129540;28;19912;-67
2023/05/25 09:52:20;;;;;;;;;;;;;;;;;;5130347;28;19908;-67
2023/05/25 09:54:46;;;;;;;;;;;;;;;;;;5130917;28;19915;-67
2023/05/25 09:59:38;;;;;;;;;;;;;;;;;;5090341;27;19916;-67
2023/05/25 10:02:04;;;;;;;;;;;;;;;;;;5090547;28;19919;-67
2023/05/25 10:05:29;;;;;;;;;;;;;;;;;;5090208;28;20333;-66
2023/05/25 10:07:55;;;;;;;;;;;;;;;;;;5089053;28;20671;-66
2023/05/25 10:10:21;;;;;;;;;;;;;;;;;;5090070;28;19916;-66
2023/05/25 10:12:48;;;;;;;;;;;;;;;;;;5088042;28;19978;-66
2023/05/25 10:15:14;;;;;;;;;;;;;;;;;;5089477;28;19909;-66
2023/05/25 10:17:40;;;;;;;;;;;;;;;;;;5088761;28;19919;-66
2023/05/25 10:20:06;;;;;;;;;;;;;;;;;;5089989;28;20007;-66
2023/05/25 10:22:32;;;;;;;;;;;;;;;;;;5085081;28;19913;-66
2023/05/25 10:24:58;;;;;;;;;;;;;;;;;;5078732;28;20400;-66
2023/05/25 10:27:24;;;;;;;;;;;;;;;;;;5069441;28;19920;-67
2023/05/25 10:29:50;;;;;;;;;;;;;;;;;;5080470;28;20061;-66
2023/05/25 10:35:35;;;;;;;;;;;;;;;;;;5108184;27;19938;-66
2023/05/25 10:38:01;;;;;;;;;;;;;;;;;;5108411;28;19912;-66
2023/05/25 10:44:27;;;;;;;;;;;;;;;;;;5148859;27;19982;-66
2023/05/25 10:46:53;;;;;;;;;;;;;;;;;;5148935;27;20009;-66
2023/05/25 10:49:19;;;;;;;;;;;;;;;;;;5150836;27;20002;-66
2023/05/25 10:51:44;;;;;;;;;;;;;;;;;;5150805;27;19915;-67
2023/05/25 10:54:43;;;;;;;;;;;;;;;;;;5089889;27;20265;-66
2023/05/25 10:58:17;;;;;;;;;;;;;;;;;;5150641;27;19911;-66
2023/05/25 11:02:18;;;;;;;;;;;;;;;;;;5068277;28;19938;-65
2023/05/25 11:04:44;;;;;;;;;;;;;;;;;;5069356;28;20380;-66
2023/05/25 11:07:13;;;;;;;;;;;;;;;;;;5067273;28;19912;-66
2023/05/25 11:09:39;;;;;;;;;;;;;;;;;;5068180;28;19940;-66
2023/05/25 11:12:05;;;;;;;;;;;;;;;;;;5069214;28;19947;-67
2023/05/25 11:14:31;;;;;;;;;;;;;;;;;;5069416;28;19908;-66
2023/05/25 11:16:57;;;;;;;;;;;;;;;;;;5068978;28;19970;-66
2023/05/25 11:19:23;;;;;;;;;;;;;;;;;;5066377;28;19917;-65
2023/05/25 11:21:49;;;;;;;;;;;;;;;;;;5068958;28;19947;-65
2023/05/25 11:24:15;;;;;;;;;;;;;;;;;;5068323;28;20000;-65
2023/05/25 11:26:41;;;;;;;;;;;;;;;;;;5069467;28;19978;-65
2023/05/25 11:29:07;;;;;;;;;;;;;;;;;;5067101;28;20372;-64
2023/05/25 11:31:35;;;;;;;;;;;;;;;;;;5067514;28;20284;-65
2023/05/25 11:34:01;;;;;;;;;;;;;;;;;;5067959;28;19913;-64
2023/05/25 11:36:30;;;;;;;;;;;;;;;;;;5063820;28;20348;-65
2023/05/25 11:38:56;;;;;;;;;;;;;;;;;;5068768;28;20338;-66
2023/05/25 11:41:22;;;;;;;;;;;;;;;;;;5068656;28;19916;-65
2023/05/25 11:43:59;;;;;;;;;;;;;;;;;;5088713;28;20292;-64
2023/05/25 11:46:26;;;;;;;;;;;;;;;;;;5089372;28;19923;-63
2023/05/25 11:50:42;;;;;;;;;;;;;;;;;;5087125;27;19920;-63
2023/05/25 11:53:09;;;;;;;;;;;;;;;;;;5089718;28;20379;-64
2023/05/25 11:58:05;;;;;;;;;;;;;;;;;;4964803;27;5437598;-64
2023/05/25 12:00:31;;;;;;;;;;;;;;;;;;5151009;27;19915;-64
2023/05/25 12:02:57;;;;;;;;;;;;;;;;;;5150930;27;19912;-64
2023/05/25 12:07:49;;;;;;;;;;;;;;;;;;5093187;27;2111167;-65
2023/05/25 12:13:54;;;;;;;;;;;;;;;;;;5088971;27;20283;-65
2023/05/25 12:16:48;;;;;;;;;;;;;;;;;;5087856;27;19920;-65
2023/05/25 12:19:14;;;;;;;;;;;;;;;;;;5089775;28;19919;-66
2023/05/25 12:21:40;;;;;;;;;;;;;;;;;;5105250;28;19908;-65
2023/05/25 12:26:40;;;;;;;;;;;;;;;;;;5083711;28;19927;-65
2023/05/25 12:31:12;;;;;;;;;;;;;;;;;;5085417;27;20288;-65
2023/05/25 12:37:16;;;;;;;;;;;;;;;;;;5090048;27;19919;-64
2023/05/25 12:42:14;;;;;;;;;;;;;;;;;;5090721;27;19993;-64
2023/05/25 12:44:41;;;;;;;;;;;;;;;;;;5086149;28;19912;-68
2023/05/25 12:47:07;;;;;;;;;;;;;;;;;;5087561;28;19995;-69
2023/05/25 12:49:33;;;;;;;;;;;;;;;;;;5087392;28;20003;-69
2023/05/25 12:51:59;;;;;;;;;;;;;;;;;;5089726;28;19931;-69
2023/05/25 12:54:25;;;;;;;;;;;;;;;;;;5089234;28;19908;-69
2023/05/25 12:56:51;;;;;;;;;;;;;;;;;;5089655;28;19908;-69
2023/05/25 12:59:17;;;;;;;;;;;;;;;;;;5090273;28;20370;-69
2023/05/25 13:02:09;;;;;;;;;;;;;;;;;;5090511;27;20299;-68
2023/05/25 13:04:35;;;;;;;;;;;;;;;;;;5090811;28;19912;-68
2023/05/25 13:07:01;;;;;;;;;;;;;;;;;;5088007;28;19908;-68
2023/05/25 13:09:27;;;;;;;;;;;;;;;;;;5089250;28;19909;-69
2023/05/25 13:12:25;;;;;;;;;;;;;;;;;;5069394;28;19917;-69
2023/05/25 13:14:51;;;;;;;;;;;;;;;;;;5069070;28;19919;-68
2023/05/25 13:17:17;;;;;;;;;;;;;;;;;;5070441;28;19908;-68
2023/05/25 13:19:44;;;;;;;;;;;;;;;;;;5070820;28;19915;-68
2023/05/25 13:22:10;;;;;;;;;;;;;;;;;;5086143;28;19908;-68
2023/05/25 13:24:36;;;;;;;;;;;;;;;;;;5070995;28;19913;-68
2023/05/25 13:27:02;;;;;;;;;;;;;;;;;;5070888;28;19915;-70
2023/05/25 13:29:28;;;;;;;;;;;;;;;;;;5070483;28;19946;-70
2023/05/25 13:31:53;;;;;;;;;;;;;;;;;;5070697;28;19917;-70
2023/05/25 13:34:20;;;;;;;;;;;;;;;;;;5070748;28;19992;-70
2023/05/25 13:36:46;;;;;;;;;;;;;;;;;;5070461;28;19919;-70
2023/05/25 13:39:45;;;;;;;;;;;;;;;;;;5112569;27;19916;-68
2023/05/25 13:42:39;;;;;;;;;;;;;;;;;;5091640;27;20261;-68
2023/05/25 13:45:05;;;;;;;;;;;;;;;;;;5091543;28;19919;-69
2023/05/25 13:48:51;;;;;;;;;;;;;;;;;;5153406;27;20117;-68
2023/05/25 13:51:18;;;;;;;;;;;;;;;;;;5152552;27;19955;-68
2023/05/25 13:53:44;;;;;;;;;;;;;;;;;;5152808;27;20319;-68
2023/05/25 13:58:16;;;;;;;;;;;;;;;;;;5091127;27;20273;-69
2023/05/25 14:00:42;;;;;;;;;;;;;;;;;;5091629;28;19919;-68
2023/05/25 14:03:07;;;;;;;;;;;;;;;;;;5091384;28;19991;-68
2023/05/25 14:05:33;;;;;;;;;;;;;;;;;;5090829;28;20286;-69
2023/05/25 14:09:45;;;;;;;;;;;;;;;;;;5092133;27;19923;-68
2023/05/25 14:12:11;;;;;;;;;;;;;;;;;;5091096;28;20002;-68
2023/05/25 14:14:37;;;;;;;;;;;;;;;;;;5089934;28;19908;-68
2023/05/25 14:17:15;;;;;;;;;;;;;;;;;;5091783;27;19917;-68
2023/05/25 14:19:41;;;;;;;;;;;;;;;;;;5090857;28;20396;-68
2023/05/25 14:22:07;;;;;;;;;;;;;;;;;;5091179;28;19915;-68
2023/05/25 14:26:03;;;;;;;;;;;;;;;;;;5091244;27;19916;-69
2023/05/25 14:28:29;;;;;;;;;;;;;;;;;;5091578;28;19919;-68
2023/05/25 14:30:55;;;;;;;;;;;;;;;;;;5091383;28;19908;-68
2023/05/25 14:33:21;;;;;;;;;;;;;;;;;;5090877;28;19915;-68
2023/05/25 14:36:11;;;;;;;;;;;;;;;;;;5091510;27;19923;-69
2023/05/25 14:38:37;;;;;;;;;;;;;;;;;;5091078;28;20002;-69
2023/05/25 14:43:10;;;;;;;;;;;;;;;;;;5153490;27;20433;-69
2023/05/25 14:48:00;;;;;;;;;;;;;;;;;;5091536;28;19919;-70
2023/05/25 14:50:26;;;;;;;;;;;;;;;;;;5091520;28;20007;-68
2023/05/25 14:53:59;;;;;;;;;;;;;;;;;;5070963;28;19912;-69
2023/05/25 14:56:25;;;;;;;;;;;;;;;;;;5069842;28;20361;-68
2023/05/25 14:58:51;;;;;;;;;;;;;;;;;;5071012;28;19909;-68
2023/05/25 15:01:17;;;;;;;;;;;;;;;;;;5070823;28;20315;-68
2023/05/25 15:06:35;;;;;;;;;;;;;;;;;;5091276;27;19919;-68
2023/05/25 15:13:00;;;;;;;;;;;;;;;;;;5092094;27;20261;-68
2023/05/25 15:21:25;;;;;;;;;;;;;;;;;;5091056;28;19916;-69
2023/05/25 15:25:16;;;;;;;;;;;;;;;;;;5092100;28;19916;-68
2023/05/25 15:27:42;;;;;;;;;;;;;;;;;;5090889;28;19944;-68
2023/05/25 15:30:08;;;;;;;;;;;;;;;;;;5090575;28;19915;-69
2023/05/25 15:35:49;;;;;;;;;;;;;;;;;;5111293;27;19916;-68
2023/05/25 15:38:15;;;;;;;;;;;;;;;;;;5111772;28;19998;-69
2023/05/25 15:40:41;;;;;;;;;;;;;;;;;;5111856;28;19961;-68
2023/05/25 15:46:38;;;;;;;;;;;;;;;;;;5071828;28;20269;-67
2023/05/25 15:51:43;;;;;;;;;;;;;;;;;;5091310;27;19919;-69
2023/05/25 15:54:09;;;;;;;;;;;;;;;;;;5091334;28;19920;-69
2023/05/25 15:56:35;;;;;;;;;;;;;;;;;;5089551;28;19912;-69
2023/05/25 15:59:26;;;;;;;;;;;;;;;;;;5091801;27;20011;-68
2023/05/25 16:03:07;;;;;;;;;;;;;;;;;;5152528;27;20299;-68
2023/05/25 16:07:43;;;;;;;;;;;;;;;;;;5092018;27;19927;-69
2023/05/25 16:10:09;;;;;;;;;;;;;;;;;;5089563;28;20003;-69
2023/05/25 16:13:31;;;;;;;;;;;;;;;;;;5112477;27;19916;-67
2023/05/25 16:15:57;;;;;;;;;;;;;;;;;;5111619;28;20014;-68
2023/05/25 16:18:23;;;;;;;;;;;;;;;;;;5109902;28;19957;-70
2023/05/25 16:25:44;;;;;;;;;;;;;;;;;;5111413;27;19916;-68
2023/05/25 16:29:37;;;;;;;;;;;;;;;;;;5091695;27;19938;-68
2023/05/25 16:32:02;;;;;;;;;;;;;;;;;;5089644;28;20098;-69
2023/05/25 16:34:48;;;;;;;;;;;;;;;;;;5092106;27;19916;-68
2023/05/25 16:37:14;;;;;;;;;;;;;;;;;;5091862;28;20332;-68
2023/05/25 16:43:27;;;;;;;;;;;;;;;;;;5092035;28;19935;-67
2023/05/25 16:45:53;;;;;;;;;;;;;;;;;;5090933;28;20459;-68
2023/05/25 16:49:28;;;;;;;;;;;;;;;;;;5153362;27;20002;-68
2023/05/25 16:51:54;;;;;;;;;;;;;;;;;;5152804;27;19915;-69
2023/05/25 16:54:20;;;;;;;;;;;;;;;;;;5152189;27;20479;-68
2023/05/25 16:56:46;;;;;;;;;;;;;;;;;;5152656;27;19912;-68
2023/05/25 16:59:29;;;;;;;;;;;;;;;;;;5091440;28;19920;-67
2023/05/25 17:03:59;;;;;;;;;;;;;;;;;;5091356;27;19923;-69
2023/05/25 17:06:25;;;;;;;;;;;;;;;;;;5090831;28;20406;-70
2023/05/25 17:11:04;;;;;;;;;;;;;;;;;;5091654;27;20341;-68
2023/05/25 17:13:30;;;;;;;;;;;;;;;;;;5091115;28;19999;-69
2023/05/25 17:15:55;;;;;;;;;;;;;;;;;;5091308;28;20409;-69
2023/05/25 17:18:21;;;;;;;;;;;;;;;;;;5091324;28;19916;-69
2023/05/25 17:20:47;;;;;;;;;;;;;;;;;;5090738;28;19931;-69
2023/05/25 17:23:15;;;;;;;;;;;;;;;;;;5091351;28;20288;-69
2023/05/25 17:25:41;;;;;;;;;;;;;;;;;;5091104;28;19909;-69
2023/05/25 17:28:47;;;;;;;;;;;;;;;;;;5173464;27;19915;-68
2023/05/25 17:31:13;;;;;;;;;;;;;;;;;;5173673;27;19911;-69
2023/05/25 17:33:39;;;;;;;;;;;;;;;;;;5173572;27;19997;-68
2023/05/25 17:38:03;;;;;;;;;;;;;;;;;;5112420;27;19915;-67
2023/05/25 17:43:53;;;;;;;;;;;;;;;;;;5092058;28;19916;-69
2023/05/25 17:46:20;;;;;;;;;;;;;;;;;;5091239;28;20011;-68
2023/05/25 17:50:02;;;;;;;;;;;;;;;;;;5111364;27;19916;-68
2023/05/25 17:53:30;;;;;;;;;;;;;;;;;;5132386;27;19965;-68
2023/05/25 17:56:55;;;;;;;;;;;;;;;;;;5091202;28;19923;-68
2023/05/25 17:59:21;;;;;;;;;;;;;;;;;;5091287;28;19917;-69
2023/05/25 18:01:47;;;;;;;;;;;;;;;;;;5091232;28;19962;-68
2023/05/25 18:04:13;;;;;;;;;;;;;;;;;;5090823;28;19915;-68
2023/05/25 18:06:39;;;;;;;;;;;;;;;;;;5091246;28;19909;-69
2023/05/25 18:10:28;;;;;;;;;;;;;;;;;;5111794;27;19917;-69
2023/05/25 18:17:20;;;;;;;;;;;;;;;;;;5152864;27;20009;-69
2023/05/25 18:20:38;;;;;;;;;;;;;;;;;;5111237;27;19934;-67
2023/05/25 18:23:06;;;;;;;;;;;;;;;;;;5111652;28;20431;-68
2023/05/25 18:26:03;;;;;;;;;;;;;;;;;;5091160;27;19918;-68
2023/05/25 18:28:29;;;;;;;;;;;;;;;;;;5091292;28;20335;-69
2023/05/25 18:33:05;;;;;;;;;;;;;;;;;;5132179;27;19916;-68
2023/05/25 18:39:01;;;;;;;;;;;;;;;;;;5152728;27;19986;-67
2023/05/25 18:42:35;;;;;;;;;;;;;;;;;;5091540;27;19923;-69
2023/05/25 18:45:01;;;;;;;;;;;;;;;;;;5090970;28;19999;-68
2023/05/25 18:47:27;;;;;;;;;;;;;;;;;;5091186;28;19909;-68
2023/05/25 18:52:28;;;;;;;;;;;;;;;;;;5111534;27;20270;-68
2023/05/25 18:55:43;;;;;;;;;;;;;;;;;;5091306;28;19917;-66
2023/05/25 18:59:10;;;;;;;;;;;;;;;;;;5091196;27;19916;-70
2023/05/25 19:01:37;;;;;;;;;;;;;;;;;;5091291;28;20011;-68
2023/05/25 19:04:34;;;;;;;;;;;;;;;;;;5153180;27;19919;-69
2023/05/25 19:07:00;;;;;;;;;;;;;;;;;;5152511;27;19911;-68
2023/05/25 19:11:14;;;;;;;;;;;;;;;;;;5091371;27;19919;-69
2023/05/25 19:13:40;;;;;;;;;;;;;;;;;;5091134;28;20019;-70
2023/05/25 19:18:02;;;;;;;;;;;;;;;;;;5071242;28;19917;-69
2023/05/25 19:20:28;;;;;;;;;;;;;;;;;;5070596;28;20330;-68
2023/05/25 19:22:54;;;;;;;;;;;;;;;;;;5069751;28;19916;-68
2023/05/25 19:27:12;;;;;;;;;;;;;;;;;;5111382;27;19926;-68
2023/05/25 19:29:38;;;;;;;;;;;;;;;;;;5111672;28;19912;-69
2023/05/25 19:32:04;;;;;;;;;;;;;;;;;;5111110;28;19908;-69
2023/05/25 19:36:46;;;;;;;;;;;;;;;;;;5111263;27;19923;-69
2023/05/25 19:40:31;;;;;;;;;;;;;;;;;;5091165;27;19916;-70
2023/05/25 19:42:57;;;;;;;;;;;;;;;;;;5090770;28;19958;-68
2023/05/25 19:45:22;;;;;;;;;;;;;;;;;;5090601;28;19912;-69
2023/05/25 19:53:41;;;;;;;;;;;;;;;;;;5071573;28;19923;-69
2023/05/25 19:56:07;;;;;;;;;;;;;;;;;;5070612;28;20007;-69
2023/05/25 20:00:58;;;;;;;;;;;;;;;;;;5091311;27;19916;-68
2023/05/25 20:03:24;;;;;;;;;;;;;;;;;;5090809;28;20372;-68
2023/05/25 20:07:07;;;;;;;;;;;;;;;;;;5111820;27;20299;-69
2023/05/25 20:09:34;;;;;;;;;;;;;;;;;;5111272;28;19912;-70
2023/05/25 20:12:01;;;;;;;;;;;;;;;;;;5111590;28;19912;-70
2023/05/25 20:16:55;;;;;;;;;;;;;;;;;;5091155;27;20303;-68
2023/05/25 20:19:21;;;;;;;;;;;;;;;;;;5091414;28;20407;-69
2023/05/25 20:22:47;;;;;;;;;;;;;;;;;;5112600;27;19916;-68
2023/05/25 20:25:13;;;;;;;;;;;;;;;;;;5111367;28;19999;-70
2023/05/25 20:29:21;;;;;;;;;;;;;;;;;;5092125;27;20348;-69
2023/05/25 20:31:47;;;;;;;;;;;;;;;;;;5090977;28;19912;-69
2023/05/25 20:34:13;;;;;;;;;;;;;;;;;;5091312;28;19930;-70
2023/05/25 20:36:39;;;;;;;;;;;;;;;;;;5090024;28;19912;-70
2023/05/25 20:44:10;;;;;;;;;;;;;;;;;;5071901;28;19919;-69
2023/05/25 20:46:36;;;;;;;;;;;;;;;;;;5070706;28;19959;-69
2023/05/25 20:49:02;;;;;;;;;;;;;;;;;;5071070;28;19908;-70
2023/05/25 20:55:25;;;;;;;;;;;;;;;;;;5111795;27;20291;-69
2023/05/25 20:57:51;;;;;;;;;;;;;;;;;;5111721;28;20014;-68
2023/05/25 21:02:23;;;;;;;;;;;;;;;;;;5072018;28;19917;-70
2023/05/25 21:04:49;;;;;;;;;;;;;;;;;;5071435;28;20007;-69
2023/05/25 21:07:17;;;;;;;;;;;;;;;;;;5070568;28;19913;-70
2023/05/25 21:09:43;;;;;;;;;;;;;;;;;;5071012;28;19913;-68
2023/05/25 21:12:09;;;;;;;;;;;;;;;;;;5070940;28;19931;-69
2023/05/25 21:14:35;;;;;;;;;;;;;;;;;;5070539;28;19908;-69
2023/05/25 21:17:01;;;;;;;;;;;;;;;;;;5070914;28;19909;-69
2023/05/25 21:19:27;;;;;;;;;;;;;;;;;;5070394;28;20288;-68
2023/05/25 21:23:30;;;;;;;;;;;;;;;;;;5112516;27;20275;-69
2023/05/25 21:25:56;;;;;;;;;;;;;;;;;;5112058;28;20008;-70
2023/05/25 21:28:22;;;;;;;;;;;;;;;;;;5111229;28;19915;-69
2023/05/25 21:33:25;;;;;;;;;;;;;;;;;;5091829;27;19939;-69
2023/05/25 21:37:19;;;;;;;;;;;;;;;;;;5091475;28;19916;-69
2023/05/25 21:39:45;;;;;;;;;;;;;;;;;;5091639;28;20455;-69
2023/05/25 21:44:26;;;;;;;;;;;;;;;;;;5112657;27;19922;-69
2023/05/25 21:46:52;;;;;;;;;;;;;;;;;;5111692;28;19999;-68
2023/05/25 21:49:18;;;;;;;;;;;;;;;;;;5111259;28;19912;-69
2023/05/25 21:52:26;;;;;;;;;;;;;;;;;;5111894;27;19922;-69